createdAt,value
2023-04-02T06:59:51.371Z,98003.00
2023-04-02T07:04:46.188Z,98000.00
2023-04-02T07:07:13.710Z,98007.00
2023-04-02T07:09:42.515Z,98006.00
2023-04-02T07:12:14.225Z,98017.00
2023-04-02T07:14:41.731Z,98015.00
2023-04-02T07:17:18.069Z,98021.00
2023-04-02T07:19:49.664Z,98016.00
2023-04-02T07:22:19.447Z,98027.00
2023-04-02T07:24:47.224Z,98023.00
2023-04-02T07:27:15.583Z,98031.00
2023-04-02T07:29:43.097Z,98032.00
2023-04-02T07:32:14.173Z,98043.00
2023-04-02T07:34:42.472Z,98033.00
2023-04-02T07:37:14.876Z,98045.00
2023-04-02T07:39:42.424Z,98045.00
2023-04-02T07:42:10.281Z,98050.00
2023-04-02T07:44:37.869Z,98037.00
2023-04-02T07:47:05.632Z,98056.00
2023-04-02T07:49:33.127Z,98057.00
2023-04-02T07:52:00.926Z,98041.00
2023-04-02T07:54:28.538Z,98059.00
2023-04-02T07:56:56.519Z,98064.00
2023-04-02T07:59:24.103Z,98062.00
2023-04-02T08:01:53.659Z,98068.00
2023-04-02T08:04:23.393Z,98067.00
2023-04-02T08:06:52.966Z,98068.00
2023-04-02T08:09:20.392Z,98072.00
2023-04-02T08:11:47.838Z,98086.00
2023-04-02T08:14:15.644Z,98078.00
2023-04-02T08:16:53.745Z,98077.00
2023-04-02T08:19:22.152Z,98090.00
2023-04-02T08:21:52.082Z,98080.00
2023-04-02T08:24:21.131Z,98076.00
2023-04-02T08:26:51.569Z,98085.00
2023-04-02T08:29:19.287Z,98093.00
2023-04-02T08:31:46.736Z,98097.00
2023-04-02T08:34:14.382Z,98087.00
2023-04-02T08:36:45.668Z,98088.00
2023-04-02T08:39:13.581Z,98090.00
2023-04-02T08:42:44.922Z,98101.00
2023-04-02T08:45:58.187Z,98093.00
2023-04-02T08:48:25.732Z,98090.00
2023-04-02T08:50:53.757Z,98096.00
2023-04-02T08:53:32.360Z,98100.00
2023-04-02T08:56:24.141Z,98104.00
2023-04-02T08:58:57.788Z,98105.00
2023-04-02T09:02:07.024Z,98108.00
2023-04-02T09:04:37.067Z,98110.00
2023-04-02T09:07:04.714Z,98109.00
2023-04-02T09:09:39.276Z,98108.00
2023-04-02T09:12:29.460Z,98117.00
2023-04-02T09:15:34.317Z,98117.00
2023-04-02T09:18:19.946Z,98109.00
2023-04-02T09:20:49.475Z,98125.00
2023-04-02T09:23:24.171Z,98110.00
2023-04-02T09:26:04.268Z,98121.00
2023-04-02T09:28:32.414Z,98118.00
2023-04-02T09:31:37.870Z,98119.00
2023-04-02T09:34:34.873Z,98131.00
2023-04-02T09:37:25.698Z,98124.00
2023-04-02T09:40:09.899Z,98132.00
2023-04-02T09:42:38.288Z,98125.00
2023-04-02T09:45:35.672Z,98140.00
2023-04-02T09:48:14.932Z,98134.00
2023-04-02T09:50:42.305Z,98144.00
2023-04-02T09:53:33.850Z,98141.00
2023-04-02T09:56:24.429Z,98146.00
2023-04-02T09:59:16.195Z,98147.00
2023-04-02T10:01:57.120Z,98148.00
2023-04-02T10:04:49.881Z,98154.00
2023-04-02T10:07:45.128Z,98152.00
2023-04-02T10:10:46.844Z,98157.00
2023-04-02T10:14:02.114Z,98156.00
2023-04-02T10:17:11.822Z,98163.00
2023-04-02T10:19:47.412Z,98161.00
2023-04-02T10:22:22.487Z,98161.00
2023-04-02T10:24:51.371Z,98165.00
2023-04-02T10:28:34.598Z,98159.00
2023-04-02T10:31:48.188Z,98155.00
2023-04-02T10:34:54.392Z,98168.00
2023-04-02T10:37:45.906Z,98152.00
2023-04-02T10:40:47.985Z,98160.00
2023-04-02T10:44:20.474Z,98164.00
2023-04-02T10:47:32.317Z,98169.00
2023-04-02T10:50:15.789Z,98166.00
2023-04-02T10:53:45.729Z,98177.00
2023-04-02T10:56:14.644Z,98184.00
2023-04-02T10:59:26.233Z,98191.00
2023-04-02T11:01:58.817Z,98179.00
2023-04-02T11:04:42.423Z,98195.00
2023-04-02T11:07:22.684Z,98204.00
2023-04-02T11:09:56.474Z,98194.00
2023-04-02T11:12:49.671Z,98200.00
2023-04-02T11:15:20.498Z,98209.00
2023-04-02T11:17:48.637Z,98219.00
2023-04-02T11:21:03.361Z,98212.00
2023-04-02T11:24:01.346Z,98214.00
2023-04-02T11:26:47.558Z,98217.00
2023-04-02T11:29:29.160Z,98220.00
2023-04-02T11:32:25.582Z,98213.00
2023-04-02T11:35:06.632Z,98205.00
2023-04-02T11:37:45.734Z,98199.00
2023-04-02T11:40:16.043Z,98216.00
2023-04-02T11:42:50.523Z,98200.00
2023-04-02T11:45:52.852Z,98211.00
2023-04-02T11:48:20.682Z,98232.00
2023-04-02T11:50:48.203Z,98228.00
2023-04-02T11:53:15.734Z,98238.00
2023-04-02T11:56:06.563Z,98236.00
2023-04-02T11:59:30.116Z,98241.00
2023-04-02T12:02:28.763Z,98247.00
2023-04-02T12:05:54.813Z,98245.00
2023-04-02T12:09:23.765Z,98228.00
2023-04-02T12:12:00.040Z,98245.00
2023-04-02T12:14:51.947Z,98238.00
2023-04-02T12:17:36.052Z,98216.00
2023-04-02T12:20:09.928Z,98256.00
2023-04-02T12:22:53.527Z,98251.00
2023-04-02T12:25:40.492Z,98265.00
2023-04-02T12:28:11.191Z,98267.00
2023-04-02T12:30:40.529Z,98256.00
2023-04-02T12:33:23.199Z,98264.00
2023-04-02T12:36:02.115Z,98248.00
2023-04-02T12:38:48.323Z,98263.00
2023-04-02T12:41:33.554Z,98254.00
2023-04-02T12:44:15.616Z,98237.00
2023-04-02T12:46:45.510Z,98232.00
2023-04-02T12:49:45.079Z,98248.00
2023-04-02T12:52:20.774Z,98263.00
2023-04-02T12:55:03.807Z,98273.00
2023-04-02T12:57:34.160Z,98283.00
2023-04-02T13:00:21.377Z,98274.00
2023-04-02T13:03:05.982Z,98279.00
2023-04-02T13:05:56.522Z,98283.00
2023-04-02T13:08:33.198Z,98266.00
2023-04-02T13:11:05.030Z,98283.00
2023-04-02T13:13:43.694Z,98282.00
2023-04-02T13:16:20.118Z,98274.00
2023-04-02T13:18:50.949Z,98287.00
2023-04-02T13:21:21.315Z,98284.00
2023-04-02T13:23:48.759Z,98284.00
2023-04-02T13:26:28.389Z,98270.00
2023-04-02T13:29:36.682Z,98283.00
2023-04-02T13:32:13.555Z,98281.00
2023-04-02T13:34:41.025Z,98273.00
2023-04-02T13:37:13.415Z,98271.00
2023-04-02T13:39:40.929Z,98286.00
2023-04-02T13:42:11.784Z,98281.00
2023-04-02T13:44:39.296Z,98285.00
2023-04-02T13:47:07.531Z,98283.00
2023-04-02T13:49:35.119Z,98285.00
2023-04-02T13:52:05.178Z,98295.00
2023-04-02T13:54:51.144Z,98283.00
2023-04-02T13:57:19.129Z,98285.00
2023-04-02T13:59:46.832Z,98299.00
2023-04-02T14:02:23.806Z,98296.00
2023-04-02T14:05:37.160Z,98296.00
2023-04-02T14:08:48.582Z,98301.00
2023-04-02T14:11:59.348Z,98290.00
2023-04-02T14:15:13.511Z,98299.00
2023-04-02T14:18:33.023Z,98303.00
2023-04-02T14:22:09.563Z,98310.00
2023-04-02T14:25:24.233Z,98319.00
2023-04-02T14:28:15.908Z,98329.00
2023-04-02T14:31:12.974Z,98325.00
2023-04-02T14:34:34.516Z,98335.00
2023-04-02T14:37:28.225Z,98327.00
2023-04-02T14:41:04.480Z,98335.00
2023-04-02T14:43:52.352Z,98329.00
2023-04-02T14:46:24.767Z,98328.00
2023-04-02T14:49:09.216Z,98334.00
2023-04-02T14:52:14.200Z,98335.00
2023-04-02T14:55:04.357Z,98324.00
2023-04-02T14:57:49.159Z,98329.00
2023-04-02T15:00:45.842Z,98327.00
2023-04-02T15:03:24.451Z,98335.00
2023-04-02T15:06:09.584Z,98312.00
2023-04-02T15:09:15.037Z,98295.00
2023-04-02T15:11:57.219Z,98301.00
2023-04-02T15:14:51.163Z,98308.00
2023-04-02T15:17:21.448Z,98298.00
2023-04-02T15:19:49.732Z,98306.00
2023-04-02T15:22:51.376Z,98316.00
2023-04-02T15:25:55.528Z,98314.00
2023-04-02T15:28:40.965Z,98317.00
2023-04-02T15:31:15.013Z,98316.00
2023-04-02T15:33:46.089Z,98318.00
2023-04-02T15:36:47.904Z,98318.00
2023-04-02T15:40:02.958Z,98323.00
2023-04-02T15:42:42.193Z,98328.00
2023-04-02T15:45:12.257Z,98324.00
2023-04-02T15:48:42.964Z,98340.00
2023-04-02T15:51:26.505Z,98328.00
2023-04-02T15:54:31.471Z,98341.00
2023-04-02T15:58:08.656Z,98345.00
2023-04-02T16:01:01.091Z,98362.00
2023-04-02T16:04:19.657Z,98364.00
2023-04-02T16:07:23.406Z,98369.00
2023-04-02T16:10:41.121Z,98374.00
2023-04-02T16:13:39.230Z,98390.00
2023-04-02T16:16:42.500Z,98372.00
2023-04-02T16:19:51.944Z,98398.00
2023-04-02T16:22:30.208Z,98378.00
2023-04-02T16:25:19.361Z,98379.00
2023-04-02T16:28:39.159Z,98398.00
2023-04-02T16:31:26.232Z,98397.00
2023-04-02T16:34:47.275Z,98403.00
2023-04-02T16:38:07.850Z,98396.00
2023-04-02T16:41:37.774Z,98401.00
2023-04-02T16:45:03.081Z,98413.00
2023-04-02T16:47:47.117Z,98406.00
2023-04-02T16:50:45.796Z,98410.00
2023-04-02T16:54:09.168Z,98417.00
2023-04-02T16:57:06.932Z,98413.00
2023-04-02T17:00:13.897Z,98418.00
2023-04-02T17:03:58.174Z,98421.00
2023-04-02T17:07:30.545Z,98426.00
2023-04-02T17:10:30.396Z,98432.00
2023-04-02T17:13:46.216Z,98440.00
2023-04-02T17:16:33.107Z,98435.00
2023-04-02T17:19:02.712Z,98434.00
2023-04-02T17:21:32.490Z,98438.00
2023-04-02T17:24:28.492Z,98446.00
2023-04-02T17:27:32.996Z,98452.00
2023-04-02T17:30:45.010Z,98464.00
2023-04-02T17:33:18.239Z,98461.00
2023-04-02T17:36:32.960Z,98477.00
2023-04-02T17:39:53.654Z,98475.00
2023-04-02T17:42:58.512Z,98482.00
2023-04-02T17:45:57.383Z,98488.00
2023-04-02T17:48:47.293Z,98485.00
2023-04-02T17:51:48.948Z,98489.00
2023-04-02T17:54:51.808Z,98496.00
2023-04-02T17:58:05.664Z,98498.00
2023-04-02T18:01:07.134Z,98500.00
2023-04-02T18:04:16.912Z,98502.00
2023-04-02T18:07:12.279Z,98505.00
2023-04-02T18:09:54.416Z,98510.00
2023-04-02T18:13:36.665Z,98515.00
2023-04-02T18:17:21.269Z,98524.00
2023-04-02T18:20:09.121Z,98524.00
2023-04-02T18:23:09.052Z,98541.00
2023-04-02T18:26:19.296Z,98539.00
2023-04-02T18:29:41.757Z,98546.00
2023-04-02T18:33:07.077Z,98549.00
2023-04-02T18:36:02.598Z,98548.00
2023-04-02T18:39:06.482Z,98556.00
2023-04-02T18:42:13.510Z,98568.00
2023-04-02T18:45:21.042Z,98571.00
2023-04-02T18:48:41.129Z,98566.00
2023-04-02T18:51:31.989Z,98572.00
2023-04-02T18:54:56.416Z,98575.00
2023-04-02T18:57:34.243Z,98580.00
2023-04-02T19:00:29.240Z,98590.00
2023-04-02T19:03:52.604Z,98591.00
2023-04-02T19:06:35.057Z,98591.00
2023-04-02T19:09:20.741Z,98602.00
2023-04-02T19:11:49.059Z,98605.00
2023-04-02T19:14:23.308Z,98606.00
2023-04-02T19:17:44.221Z,98612.00
2023-04-02T19:20:11.509Z,98621.00
2023-04-02T19:23:42.750Z,98629.00
2023-04-02T19:26:19.431Z,98620.00
2023-04-02T19:29:04.309Z,98625.00
2023-04-02T19:31:47.129Z,98634.00
2023-04-02T19:35:03.093Z,98638.00
2023-04-02T19:37:55.947Z,98633.00
2023-04-02T19:40:54.524Z,98642.00
2023-04-02T19:43:22.054Z,98641.00
2023-04-02T19:45:50.350Z,98634.00
2023-04-02T19:48:34.824Z,98641.00
2023-04-02T19:51:02.405Z,98650.00
2023-04-02T19:53:29.924Z,98642.00
2023-04-02T19:55:57.672Z,98649.00
2023-04-02T19:58:36.407Z,98652.00
2023-04-02T20:01:04.354Z,98650.00
2023-04-02T20:03:32.599Z,98658.00
2023-04-02T20:06:00.247Z,98670.00
2023-04-02T20:08:28.733Z,98667.00
2023-04-02T20:10:58.669Z,98664.00
2023-04-02T20:13:26.282Z,98667.00
2023-04-02T20:15:54.078Z,98676.00
2023-04-02T20:18:21.692Z,98674.00
2023-04-02T20:20:49.768Z,98679.00
2023-04-02T20:23:18.017Z,98665.00
2023-04-02T20:25:57.174Z,98687.00
2023-04-02T20:28:27.750Z,98691.00
2023-04-02T20:31:05.804Z,98699.00
2023-04-02T20:33:33.535Z,98685.00
2023-04-02T20:36:15.905Z,98698.00
2023-04-02T20:38:45.934Z,98696.00
2023-04-02T20:41:16.181Z,98696.00
2023-04-02T20:43:43.916Z,98710.00
2023-04-02T20:46:12.952Z,98700.00
2023-04-02T20:48:41.423Z,98714.00
2023-04-02T20:51:14.193Z,98719.00
2023-04-02T20:53:42.266Z,98731.00
2023-04-02T20:56:17.024Z,98703.00
2023-04-02T20:58:44.904Z,98710.00
2023-04-02T21:01:27.493Z,98717.00
2023-04-02T21:04:04.788Z,98716.00
2023-04-02T21:06:38.068Z,98717.00
2023-04-02T21:09:14.830Z,98728.00
2023-04-02T21:11:42.984Z,98719.00
2023-04-02T21:14:11.587Z,98719.00
2023-04-02T21:16:41.835Z,98717.00
2023-04-02T21:19:10.864Z,98723.00
2023-04-02T21:21:39.679Z,98728.00
2023-04-02T21:24:09.649Z,98736.00
2023-04-02T21:26:41.624Z,98738.00
2023-04-02T21:29:11.816Z,98740.00
2023-04-02T21:31:42.057Z,98746.00
2023-04-02T21:34:15.808Z,98745.00
2023-04-02T21:36:50.503Z,98742.00
2023-04-02T21:39:24.293Z,98738.00
2023-04-02T21:41:53.627Z,98743.00
2023-04-02T21:44:24.438Z,98738.00
2023-04-02T21:46:54.114Z,98741.00
2023-04-02T21:49:23.328Z,98748.00
2023-04-02T21:51:51.987Z,98752.00
2023-04-02T21:54:20.220Z,98747.00
2023-04-02T21:56:48.923Z,98746.00
